Startpagina
METAR-TAF:

METAR-TAF

Vliegvelden :

Tarapoto, Peru

breedte: 06-27S, lengte: 076-23W, hoogte: 281 m

Actueel weer

Dit bericht is 2 uur en het 54 minuten geleden gemaakt, om 21:00 UTC
Weinig wind
Temperatuur 28°C
Vochtigheid 62%
Druk 1013 hPa
Zicht 10 km of meer
Verspreide wolken op 1500 ft
Gebroken wolken op 8000 ft

METAR: SPST 252100Z 00000KT 9999 SCT015 BKN080 28/20 Q1013 RMK BIRD HAZARD RWY 17/35 PP000

Tijdstip: 18:54 (23:54 UTC)

Verwachting

Dit bericht is 6 uur en het 54 minuten geleden gemaakt, om 17:00 UTC
Verwachting geldig van 25 om 18 UTC tot 26 om 18 UTC
Wind 5 kt uit het zuidzuidoosten
Zicht 10 km of meer
Verspreide wolken op 1500 ft
Gebroken wolken op 8000 ft
Tijdelijke
van 26 om 12 UTC tot 26 om 16 UTC
Zicht: 1000 m
Gebroken wolken op 800 ft
Geheel bewolkt op 8000 ft
nevel

TAF: SPST 251700Z 2518/2618 15005KT 9999 SCT015 BKN080 TX28/2521Z TN17/2611Z TEMPO 2612/2616 1000 BR BKN008 OVC080

Waarnemingen en weersverwachtingen van meer dan 4000 vliegvelden (METAR en TAF).

De beschikbare stations zijn de gele en rode punten op de kaart.

Ga met uw muis naar het station om de naam te zien.

Klik dan om waarnemingen en weersverwachtingen te zien.

kaart wijzigen: klik op de groene knoppen met een zwart kruis om in te zoomen, op de groene knop met een streepje om uit te zoomen of op de groene pijlen voor aangrenzende kaarten.


METAR-TAF: